Adams, Tennessee
Current Conditions -  °F | °C
As of 3:55 AM on Saturday 29 Nov 2014 (Local Time) from KM91 Reporting Station
Overcast Overcast  
Wind Chill: 38°   Ceiling: 4000
Heat Index: 45°   Visibility: 10mi
Dew Point: 28°   Wind: 13mph
Humidity: 53%   Direction: 200°SSW
Pressure: 30.07"   Gusts: NA
Location:  36.58°N, 87.07°W
Report Text: KM91 290955Z AUTO 20011KT 10SM OVC040 07/M02 A3007 RMK
Loading
Personal Weather Stations






























Interactive Weather Map New forecast layout! Learn more

10-Day Weather Forecast

Advertisements
Track Severe Weather on mobile